sensor_id;sensor_type;location;lat;lon;timestamp;P1;durP1;ratioP1;P2;durP2;ratioP2
37407;SDS011;24866;50.248;8.252;2023-04-25T00:01:01;10.48;;;6.63;;
37407;SDS011;24866;50.248;8.252;2023-04-25T00:03:32;10.45;;;6.57;;
37407;SDS011;24866;50.248;8.252;2023-04-25T00:06:03;10.68;;;6.72;;
37407;SDS011;24866;50.248;8.252;2023-04-25T00:08:35;8.98;;;6.28;;
37407;SDS011;24866;50.248;8.252;2023-04-25T00:11:07;11.23;;;6.60;;
37407;SDS011;24866;50.248;8.252;2023-04-25T00:13:37;12.47;;;7.17;;
37407;SDS011;24866;50.248;8.252;2023-04-25T00:16:10;11.85;;;6.40;;
37407;SDS011;24866;50.248;8.252;2023-04-25T00:18:42;12.30;;;6.50;;
37407;SDS011;24866;50.248;8.252;2023-04-25T00:21:14;13.03;;;6.77;;
37407;SDS011;24866;50.248;8.252;2023-04-25T00:23:46;8.68;;;6.00;;
37407;SDS011;24866;50.248;8.252;2023-04-25T00:26:19;8.75;;;5.93;;
37407;SDS011;24866;50.248;8.252;2023-04-25T00:28:51;11.07;;;7.57;;
37407;SDS011;24866;50.248;8.252;2023-04-25T00:31:22;8.40;;;6.40;;
37407;SDS011;24866;50.248;8.252;2023-04-25T00:33:53;12.45;;;6.75;;
37407;SDS011;24866;50.248;8.252;2023-04-25T00:36:23;10.65;;;8.02;;
37407;SDS011;24866;50.248;8.252;2023-04-25T00:38:55;13.40;;;6.80;;
37407;SDS011;24866;50.248;8.252;2023-04-25T00:41:28;16.20;;;7.55;;
37407;SDS011;24866;50.248;8.252;2023-04-25T00:43:59;9.07;;;6.45;;
37407;SDS011;24866;50.248;8.252;2023-04-25T00:46:32;8.75;;;6.88;;
37407;SDS011;24866;50.248;8.252;2023-04-25T00:49:03;12.25;;;7.63;;
37407;SDS011;24866;50.248;8.252;2023-04-25T00:51:33;11.15;;;7.03;;
37407;SDS011;24866;50.248;8.252;2023-04-25T00:54:03;11.00;;;7.18;;
37407;SDS011;24866;50.248;8.252;2023-04-25T00:56:37;10.32;;;6.78;;
37407;SDS011;24866;50.248;8.252;2023-04-25T00:59:08;13.95;;;8.13;;
37407;SDS011;24866;50.248;8.252;2023-04-25T01:01:40;11.90;;;7.07;;
37407;SDS011;24866;50.248;8.252;2023-04-25T01:04:12;11.52;;;8.25;;
37407;SDS011;24866;50.248;8.252;2023-04-25T01:06:42;12.38;;;6.93;;
37407;SDS011;24866;50.248;8.252;2023-04-25T01:09:13;10.65;;;6.68;;
37407;SDS011;24866;50.248;8.252;2023-04-25T01:11:45;12.18;;;7.13;;
37407;SDS011;24866;50.248;8.252;2023-04-25T01:14:16;11.20;;;6.50;;
37407;SDS011;24866;50.248;8.252;2023-04-25T01:16:46;14.43;;;8.13;;
37407;SDS011;24866;50.248;8.252;2023-04-25T01:19:16;9.73;;;6.75;;
37407;SDS011;24866;50.248;8.252;2023-04-25T01:21:50;12.10;;;7.63;;
37407;SDS011;24866;50.248;8.252;2023-04-25T01:24:20;12.27;;;7.53;;
37407;SDS011;24866;50.248;8.252;2023-04-25T01:26:51;9.52;;;6.15;;
37407;SDS011;24866;50.248;8.252;2023-04-25T01:29:25;10.65;;;6.65;;
37407;SDS011;24866;50.248;8.252;2023-04-25T01:31:56;13.93;;;7.67;;
37407;SDS011;24866;50.248;8.252;2023-04-25T01:34:27;11.20;;;7.10;;
37407;SDS011;24866;50.248;8.252;2023-04-25T01:37:00;10.77;;;6.63;;
37407;SDS011;24866;50.248;8.252;2023-04-25T01:39:31;9.63;;;7.32;;
37407;SDS011;24866;50.248;8.252;2023-04-25T01:42:02;13.35;;;7.63;;
37407;SDS011;24866;50.248;8.252;2023-04-25T01:44:35;13.68;;;7.63;;
37407;SDS011;24866;50.248;8.252;2023-04-25T01:47:05;13.63;;;8.18;;
37407;SDS011;24866;50.248;8.252;2023-04-25T01:49:36;13.98;;;9.30;;
37407;SDS011;24866;50.248;8.252;2023-04-25T01:52:07;12.82;;;7.85;;
37407;SDS011;24866;50.248;8.252;2023-04-25T01:54:37;14.68;;;9.43;;
37407;SDS011;24866;50.248;8.252;2023-04-25T01:57:13;12.63;;;8.35;;
37407;SDS011;24866;50.248;8.252;2023-04-25T01:59:44;13.43;;;9.05;;
37407;SDS011;24866;50.248;8.252;2023-04-25T02:02:14;12.73;;;8.77;;
37407;SDS011;24866;50.248;8.252;2023-04-25T02:04:48;12.15;;;8.27;;
37407;SDS011;24866;50.248;8.252;2023-04-25T02:07:26;15.13;;;9.73;;
37407;SDS011;24866;50.248;8.252;2023-04-25T02:09:56;15.38;;;9.45;;
37407;SDS011;24866;50.248;8.252;2023-04-25T02:12:26;12.27;;;8.67;;
37407;SDS011;24866;50.248;8.252;2023-04-25T02:14:57;14.45;;;9.75;;
37407;SDS011;24866;50.248;8.252;2023-04-25T02:17:28;13.98;;;9.27;;
37407;SDS011;24866;50.248;8.252;2023-04-25T02:19:59;16.42;;;8.80;;
37407;SDS011;24866;50.248;8.252;2023-04-25T02:22:32;12.88;;;8.00;;
37407;SDS011;24866;50.248;8.252;2023-04-25T02:25:05;15.23;;;9.40;;
37407;SDS011;24866;50.248;8.252;2023-04-25T02:27:39;12.45;;;7.35;;
37407;SDS011;24866;50.248;8.252;2023-04-25T02:30:12;15.45;;;7.65;;
37407;SDS011;24866;50.248;8.252;2023-04-25T02:32:46;13.60;;;6.75;;
37407;SDS011;24866;50.248;8.252;2023-04-25T02:35:17;15.40;;;7.32;;
37407;SDS011;24866;50.248;8.252;2023-04-25T02:37:51;10.57;;;7.05;;
37407;SDS011;24866;50.248;8.252;2023-04-25T02:40:22;12.75;;;6.47;;
37407;SDS011;24866;50.248;8.252;2023-04-25T02:42:52;13.27;;;6.82;;
37407;SDS011;24866;50.248;8.252;2023-04-25T02:45:25;15.32;;;7.50;;
37407;SDS011;24866;50.248;8.252;2023-04-25T02:47:56;9.88;;;5.47;;
37407;SDS011;24866;50.248;8.252;2023-04-25T02:50:26;13.05;;;6.50;;
37407;SDS011;24866;50.248;8.252;2023-04-25T02:52:58;11.68;;;5.93;;
37407;SDS011;24866;50.248;8.252;2023-04-25T02:55:29;16.02;;;6.43;;
37407;SDS011;24866;50.248;8.252;2023-04-25T02:58:05;11.25;;;6.18;;
37407;SDS011;24866;50.248;8.252;2023-04-25T03:00:37;9.85;;;5.35;;
37407;SDS011;24866;50.248;8.252;2023-04-25T03:03:08;9.82;;;5.90;;
37407;SDS011;24866;50.248;8.252;2023-04-25T03:05:38;10.48;;;6.10;;
37407;SDS011;24866;50.248;8.252;2023-04-25T03:08:12;10.38;;;4.75;;
37407;SDS011;24866;50.248;8.252;2023-04-25T03:10:43;8.90;;;4.53;;
37407;SDS011;24866;50.248;8.252;2023-04-25T03:13:13;10.45;;;5.13;;
37407;SDS011;24866;50.248;8.252;2023-04-25T03:15:45;13.80;;;5.25;;
37407;SDS011;24866;50.248;8.252;2023-04-25T03:18:20;12.90;;;4.90;;
37407;SDS011;24866;50.248;8.252;2023-04-25T03:20:51;11.32;;;4.30;;
37407;SDS011;24866;50.248;8.252;2023-04-25T03:28:45;13.15;;;4.75;;
37407;SDS011;24866;50.248;8.252;2023-04-25T03:31:15;9.15;;;4.93;;
37407;SDS011;24866;50.248;8.252;2023-04-25T03:33:46;16.52;;;5.13;;
37407;SDS011;24866;50.248;8.252;2023-04-25T03:36:19;11.25;;;4.85;;
37407;SDS011;24866;50.248;8.252;2023-04-25T03:39:01;12.70;;;5.30;;
37407;SDS011;24866;50.248;8.252;2023-04-25T03:41:31;11.43;;;6.03;;
37407;SDS011;24866;50.248;8.252;2023-04-25T03:44:03;10.68;;;5.40;;
37407;SDS011;24866;50.248;8.252;2023-04-25T03:46:39;12.93;;;4.72;;
37407;SDS011;24866;50.248;8.252;2023-04-25T03:49:15;15.25;;;5.30;;
37407;SDS011;24866;50.248;8.252;2023-04-25T03:51:48;16.13;;;6.15;;
37407;SDS011;24866;50.248;8.252;2023-04-25T03:54:20;11.57;;;5.80;;
37407;SDS011;24866;50.248;8.252;2023-04-25T03:56:50;14.52;;;6.10;;
37407;SDS011;24866;50.248;8.252;2023-04-25T03:59:21;12.90;;;5.32;;
37407;SDS011;24866;50.248;8.252;2023-04-25T04:01:51;11.50;;;4.72;;
37407;SDS011;24866;50.248;8.252;2023-04-25T04:04:21;13.25;;;5.18;;
37407;SDS011;24866;50.248;8.252;2023-04-25T04:06:51;11.00;;;5.10;;
37407;SDS011;24866;50.248;8.252;2023-04-25T04:09:28;11.07;;;4.88;;
37407;SDS011;24866;50.248;8.252;2023-04-25T04:12:03;11.55;;;5.20;;
37407;SDS011;24866;50.248;8.252;2023-04-25T04:14:37;12.50;;;5.28;;
37407;SDS011;24866;50.248;8.252;2023-04-25T04:17:07;8.95;;;4.30;;
37407;SDS011;24866;50.248;8.252;2023-04-25T04:19:38;10.63;;;4.93;;
37407;SDS011;24866;50.248;8.252;2023-04-25T04:22:14;12.02;;;5.07;;
37407;SDS011;24866;50.248;8.252;2023-04-25T04:24:47;11.05;;;5.05;;
37407;SDS011;24866;50.248;8.252;2023-04-25T04:27:18;11.35;;;4.55;;
37407;SDS011;24866;50.248;8.252;2023-04-25T04:29:49;12.75;;;5.25;;
37407;SDS011;24866;50.248;8.252;2023-04-25T04:32:21;9.68;;;5.32;;
37407;SDS011;24866;50.248;8.252;2023-04-25T04:34:51;12.10;;;5.00;;
37407;SDS011;24866;50.248;8.252;2023-04-25T04:37:23;11.57;;;5.75;;
37407;SDS011;24866;50.248;8.252;2023-04-25T04:39:54;12.05;;;4.88;;
37407;SDS011;24866;50.248;8.252;2023-04-25T04:42:25;12.48;;;6.28;;
37407;SDS011;24866;50.248;8.252;2023-04-25T04:44:56;13.88;;;5.15;;
37407;SDS011;24866;50.248;8.252;2023-04-25T04:47:26;17.73;;;5.82;;
37407;SDS011;24866;50.248;8.252;2023-04-25T04:49:59;13.02;;;5.25;;
37407;SDS011;24866;50.248;8.252;2023-04-25T04:52:30;17.83;;;5.53;;
37407;SDS011;24866;50.248;8.252;2023-04-25T04:55:02;12.18;;;5.53;;
37407;SDS011;24866;50.248;8.252;2023-04-25T04:57:34;14.32;;;5.57;;
37407;SDS011;24866;50.248;8.252;2023-04-25T05:00:04;11.85;;;5.55;;
37407;SDS011;24866;50.248;8.252;2023-04-25T05:02:39;12.48;;;5.90;;
37407;SDS011;24866;50.248;8.252;2023-04-25T05:05:09;14.73;;;5.93;;
37407;SDS011;24866;50.248;8.252;2023-04-25T05:07:40;16.80;;;5.60;;
37407;SDS011;24866;50.248;8.252;2023-04-25T05:10:18;14.52;;;6.00;;
37407;SDS011;24866;50.248;8.252;2023-04-25T05:12:52;13.70;;;6.05;;
37407;SDS011;24866;50.248;8.252;2023-04-25T05:15:23;10.25;;;5.88;;
37407;SDS011;24866;50.248;8.252;2023-04-25T05:17:53;11.02;;;5.32;;
37407;SDS011;24866;50.248;8.252;2023-04-25T05:20:23;13.55;;;5.70;;
37407;SDS011;24866;50.248;8.252;2023-04-25T05:22:56;13.95;;;6.15;;
37407;SDS011;24866;50.248;8.252;2023-04-25T05:25:31;16.25;;;7.00;;
37407;SDS011;24866;50.248;8.252;2023-04-25T05:28:06;13.60;;;6.38;;
37407;SDS011;24866;50.248;8.252;2023-04-25T05:30:36;16.73;;;6.55;;
37407;SDS011;24866;50.248;8.252;2023-04-25T05:33:06;13.68;;;5.68;;
37407;SDS011;24866;50.248;8.252;2023-04-25T05:35:37;15.07;;;5.40;;
37407;SDS011;24866;50.248;8.252;2023-04-25T05:38:09;13.73;;;6.65;;
37407;SDS011;24866;50.248;8.252;2023-04-25T05:40:42;15.23;;;5.72;;
37407;SDS011;24866;50.248;8.252;2023-04-25T05:43:12;15.80;;;5.57;;
37407;SDS011;24866;50.248;8.252;2023-04-25T05:45:43;14.05;;;6.10;;
37407;SDS011;24866;50.248;8.252;2023-04-25T05:48:14;15.75;;;6.03;;
37407;SDS011;24866;50.248;8.252;2023-04-25T05:50:45;16.58;;;6.30;;
37407;SDS011;24866;50.248;8.252;2023-04-25T05:53:15;17.88;;;6.10;;
37407;SDS011;24866;50.248;8.252;2023-04-25T05:55:47;18.40;;;6.28;;
37407;SDS011;24866;50.248;8.252;2023-04-25T05:58:18;11.32;;;4.82;;
37407;SDS011;24866;50.248;8.252;2023-04-25T06:00:48;15.38;;;6.18;;
37407;SDS011;24866;50.248;8.252;2023-04-25T06:03:19;16.65;;;6.97;;
37407;SDS011;24866;50.248;8.252;2023-04-25T06:05:50;16.17;;;5.50;;
37407;SDS011;24866;50.248;8.252;2023-04-25T06:08:24;13.70;;;5.93;;
37407;SDS011;24866;50.248;8.252;2023-04-25T06:10:55;14.60;;;5.32;;
37407;SDS011;24866;50.248;8.252;2023-04-25T06:13:25;14.32;;;4.80;;
37407;SDS011;24866;50.248;8.252;2023-04-25T06:15:56;14.10;;;5.70;;
37407;SDS011;24866;50.248;8.252;2023-04-25T06:18:26;11.23;;;4.70;;
37407;SDS011;24866;50.248;8.252;2023-04-25T06:20:56;11.80;;;4.88;;
37407;SDS011;24866;50.248;8.252;2023-04-25T06:23:26;12.98;;;5.13;;
37407;SDS011;24866;50.248;8.252;2023-04-25T06:25:58;13.98;;;5.72;;
37407;SDS011;24866;50.248;8.252;2023-04-25T06:28:29;11.80;;;5.00;;
37407;SDS011;24866;50.248;8.252;2023-04-25T06:30:59;13.65;;;5.38;;
37407;SDS011;24866;50.248;8.252;2023-04-25T06:33:31;14.90;;;6.38;;
37407;SDS011;24866;50.248;8.252;2023-04-25T06:36:01;10.45;;;4.82;;
37407;SDS011;24866;50.248;8.252;2023-04-25T06:38:32;11.95;;;4.90;;
37407;SDS011;24866;50.248;8.252;2023-04-25T06:41:04;10.95;;;4.90;;
37407;SDS011;24866;50.248;8.252;2023-04-25T06:43:34;22.45;;;6.30;;
37407;SDS011;24866;50.248;8.252;2023-04-25T06:46:04;8.45;;;4.25;;
37407;SDS011;24866;50.248;8.252;2023-04-25T06:48:35;11.68;;;4.32;;
37407;SDS011;24866;50.248;8.252;2023-04-25T06:51:05;11.63;;;5.25;;
37407;SDS011;24866;50.248;8.252;2023-04-25T06:53:36;13.40;;;5.20;;
37407;SDS011;24866;50.248;8.252;2023-04-25T06:56:10;10.85;;;5.05;;
37407;SDS011;24866;50.248;8.252;2023-04-25T06:58:51;9.93;;;4.30;;
37407;SDS011;24866;50.248;8.252;2023-04-25T07:01:21;12.38;;;5.45;;
37407;SDS011;24866;50.248;8.252;2023-04-25T07:03:51;13.18;;;4.82;;
37407;SDS011;24866;50.248;8.252;2023-04-25T07:06:22;10.43;;;4.38;;
37407;SDS011;24866;50.248;8.252;2023-04-25T07:08:56;13.38;;;6.35;;
37407;SDS011;24866;50.248;8.252;2023-04-25T07:11:27;11.68;;;4.53;;
37407;SDS011;24866;50.248;8.252;2023-04-25T07:14:00;13.70;;;5.10;;
37407;SDS011;24866;50.248;8.252;2023-04-25T07:16:35;10.10;;;5.53;;
37407;SDS011;24866;50.248;8.252;2023-04-25T07:19:05;9.88;;;4.20;;
37407;SDS011;24866;50.248;8.252;2023-04-25T07:21:35;11.70;;;4.40;;
37407;SDS011;24866;50.248;8.252;2023-04-25T07:24:07;13.35;;;5.15;;
37407;SDS011;24866;50.248;8.252;2023-04-25T07:26:40;11.48;;;4.22;;
37407;SDS011;24866;50.248;8.252;2023-04-25T07:29:10;9.15;;;4.13;;
37407;SDS011;24866;50.248;8.252;2023-04-25T07:31:40;10.05;;;3.92;;
37407;SDS011;24866;50.248;8.252;2023-04-25T07:34:10;11.02;;;4.93;;
37407;SDS011;24866;50.248;8.252;2023-04-25T07:36:40;7.43;;;4.40;;
37407;SDS011;24866;50.248;8.252;2023-04-25T07:39:10;14.13;;;5.07;;
37407;SDS011;24866;50.248;8.252;2023-04-25T07:41:42;10.65;;;4.43;;
37407;SDS011;24866;50.248;8.252;2023-04-25T07:44:13;12.40;;;5.53;;
37407;SDS011;24866;50.248;8.252;2023-04-25T07:46:43;9.10;;;4.32;;
37407;SDS011;24866;50.248;8.252;2023-04-25T07:49:13;12.63;;;4.32;;
37407;SDS011;24866;50.248;8.252;2023-04-25T07:51:44;7.75;;;4.30;;
37407;SDS011;24866;50.248;8.252;2023-04-25T07:54:15;10.00;;;4.38;;
37407;SDS011;24866;50.248;8.252;2023-04-25T07:56:48;11.20;;;4.45;;
37407;SDS011;24866;50.248;8.252;2023-04-25T07:59:19;10.77;;;4.70;;
37407;SDS011;24866;50.248;8.252;2023-04-25T08:01:49;12.38;;;4.63;;
37407;SDS011;24866;50.248;8.252;2023-04-25T08:04:19;10.65;;;4.18;;
37407;SDS011;24866;50.248;8.252;2023-04-25T08:06:50;13.95;;;5.80;;
37407;SDS011;24866;50.248;8.252;2023-04-25T08:09:23;14.60;;;4.05;;
37407;SDS011;24866;50.248;8.252;2023-04-25T08:11:56;15.55;;;5.95;;
37407;SDS011;24866;50.248;8.252;2023-04-25T08:14:26;11.70;;;5.80;;
37407;SDS011;24866;50.248;8.252;2023-04-25T08:16:57;12.77;;;5.75;;
37407;SDS011;24866;50.248;8.252;2023-04-25T08:19:26;13.80;;;5.55;;
37407;SDS011;24866;50.248;8.252;2023-04-25T08:21:57;10.00;;;5.43;;
37407;SDS011;24866;50.248;8.252;2023-04-25T08:24:27;13.75;;;5.63;;
37407;SDS011;24866;50.248;8.252;2023-04-25T08:26:58;12.48;;;5.32;;
37407;SDS011;24866;50.248;8.252;2023-04-25T08:29:28;9.70;;;5.93;;
37407;SDS011;24866;50.248;8.252;2023-04-25T08:31:58;10.00;;;5.32;;
37407;SDS011;24866;50.248;8.252;2023-04-25T08:34:28;10.43;;;5.55;;
37407;SDS011;24866;50.248;8.252;2023-04-25T08:36:58;9.60;;;4.40;;
37407;SDS011;24866;50.248;8.252;2023-04-25T08:39:28;8.40;;;4.88;;
37407;SDS011;24866;50.248;8.252;2023-04-25T08:42:00;10.25;;;4.78;;
37407;SDS011;24866;50.248;8.252;2023-04-25T08:44:31;10.80;;;4.78;;
37407;SDS011;24866;50.248;8.252;2023-04-25T08:47:03;11.23;;;5.10;;
37407;SDS011;24866;50.248;8.252;2023-04-25T08:49:34;13.03;;;5.60;;
37407;SDS011;24866;50.248;8.252;2023-04-25T08:52:06;12.13;;;6.25;;
37407;SDS011;24866;50.248;8.252;2023-04-25T08:54:40;11.25;;;5.53;;
37407;SDS011;24866;50.248;8.252;2023-04-25T08:57:15;11.48;;;6.25;;
37407;SDS011;24866;50.248;8.252;2023-04-25T08:59:46;18.63;;;5.93;;
37407;SDS011;24866;50.248;8.252;2023-04-25T09:02:17;13.30;;;5.10;;
37407;SDS011;24866;50.248;8.252;2023-04-25T09:04:48;13.23;;;6.07;;
37407;SDS011;24866;50.248;8.252;2023-04-25T09:07:19;11.55;;;5.65;;
37407;SDS011;24866;50.248;8.252;2023-04-25T09:09:49;10.55;;;5.20;;
37407;SDS011;24866;50.248;8.252;2023-04-25T09:12:21;8.93;;;4.63;;
37407;SDS011;24866;50.248;8.252;2023-04-25T09:15:01;8.40;;;4.40;;
37407;SDS011;24866;50.248;8.252;2023-04-25T09:17:33;12.82;;;4.93;;
37407;SDS011;24866;50.248;8.252;2023-04-25T09:20:08;8.77;;;4.35;;
37407;SDS011;24866;50.248;8.252;2023-04-25T09:22:40;9.15;;;4.35;;
37407;SDS011;24866;50.248;8.252;2023-04-25T09:25:11;7.55;;;3.80;;
37407;SDS011;24866;50.248;8.252;2023-04-25T09:27:51;6.68;;;3.42;;
37407;SDS011;24866;50.248;8.252;2023-04-25T09:30:28;9.45;;;4.30;;
37407;SDS011;24866;50.248;8.252;2023-04-25T09:33:05;9.35;;;4.15;;
37407;SDS011;24866;50.248;8.252;2023-04-25T09:35:36;8.70;;;4.20;;
37407;SDS011;24866;50.248;8.252;2023-04-25T09:38:08;7.90;;;4.40;;
37407;SDS011;24866;50.248;8.252;2023-04-25T09:40:41;14.50;;;4.88;;
37407;SDS011;24866;50.248;8.252;2023-04-25T09:43:19;7.22;;;3.80;;
37407;SDS011;24866;50.248;8.252;2023-04-25T09:45:50;14.05;;;4.65;;
37407;SDS011;24866;50.248;8.252;2023-04-25T09:48:25;10.63;;;4.05;;
37407;SDS011;24866;50.248;8.252;2023-04-25T09:51:06;8.50;;;3.47;;
37407;SDS011;24866;50.248;8.252;2023-04-25T09:53:38;6.88;;;3.15;;
37407;SDS011;24866;50.248;8.252;2023-04-25T09:56:10;7.03;;;2.83;;
37407;SDS011;24866;50.248;8.252;2023-04-25T09:58:42;7.60;;;3.22;;
37407;SDS011;24866;50.248;8.252;2023-04-25T10:01:12;6.95;;;3.20;;
37407;SDS011;24866;50.248;8.252;2023-04-25T10:03:42;7.70;;;2.88;;
37407;SDS011;24866;50.248;8.252;2023-04-25T10:06:18;12.95;;;3.13;;
37407;SDS011;24866;50.248;8.252;2023-04-25T10:08:50;10.07;;;3.53;;
37407;SDS011;24866;50.248;8.252;2023-04-25T10:11:23;8.43;;;3.28;;
37407;SDS011;24866;50.248;8.252;2023-04-25T10:13:57;8.13;;;4.05;;
37407;SDS011;24866;50.248;8.252;2023-04-25T10:16:28;8.35;;;3.38;;
37407;SDS011;24866;50.248;8.252;2023-04-25T10:18:59;12.50;;;3.33;;
37407;SDS011;24866;50.248;8.252;2023-04-25T10:21:29;10.52;;;3.83;;
37407;SDS011;24866;50.248;8.252;2023-04-25T10:24:03;8.75;;;3.47;;
37407;SDS011;24866;50.248;8.252;2023-04-25T10:26:34;9.55;;;3.65;;
37407;SDS011;24866;50.248;8.252;2023-04-25T10:29:05;8.68;;;3.30;;
37407;SDS011;24866;50.248;8.252;2023-04-25T10:31:38;7.80;;;3.28;;
37407;SDS011;24866;50.248;8.252;2023-04-25T10:34:15;8.38;;;3.03;;
37407;SDS011;24866;50.248;8.252;2023-04-25T10:36:49;12.32;;;3.90;;
37407;SDS011;24866;50.248;8.252;2023-04-25T10:39:21;10.15;;;3.28;;
37407;SDS011;24866;50.248;8.252;2023-04-25T10:41:53;11.68;;;3.45;;
37407;SDS011;24866;50.248;8.252;2023-04-25T10:46:58;6.63;;;2.90;;
37407;SDS011;24866;50.248;8.252;2023-04-25T10:49:30;7.63;;;2.63;;
37407;SDS011;24866;50.248;8.252;2023-04-25T10:52:12;6.22;;;2.35;;
37407;SDS011;24866;50.248;8.252;2023-04-25T10:54:46;5.18;;;2.20;;
37407;SDS011;24866;50.248;8.252;2023-04-25T10:57:28;9.57;;;3.30;;
37407;SDS011;24866;50.248;8.252;2023-04-25T11:00:11;9.43;;;3.00;;
37407;SDS011;24866;50.248;8.252;2023-04-25T11:02:43;8.45;;;2.60;;
37407;SDS011;24866;50.248;8.252;2023-04-25T11:05:22;10.67;;;3.20;;
37407;SDS011;24866;50.248;8.252;2023-04-25T11:07:57;6.05;;;2.90;;
37407;SDS011;24866;50.248;8.252;2023-04-25T11:10:28;15.55;;;3.78;;
37407;SDS011;24866;50.248;8.252;2023-04-25T11:12:58;8.63;;;3.30;;
37407;SDS011;24866;50.248;8.252;2023-04-25T11:15:32;13.60;;;3.67;;
37407;SDS011;24866;50.248;8.252;2023-04-25T11:18:02;8.98;;;3.28;;
37407;SDS011;24866;50.248;8.252;2023-04-25T11:20:32;8.30;;;3.40;;
37407;SDS011;24866;50.248;8.252;2023-04-25T11:23:02;7.82;;;2.67;;
37407;SDS011;24866;50.248;8.252;2023-04-25T11:25:33;9.32;;;3.38;;
37407;SDS011;24866;50.248;8.252;2023-04-25T11:28:03;10.95;;;3.50;;
37407;SDS011;24866;50.248;8.252;2023-04-25T11:30:35;7.50;;;2.88;;
37407;SDS011;24866;50.248;8.252;2023-04-25T11:33:05;9.52;;;2.92;;
37407;SDS011;24866;50.248;8.252;2023-04-25T11:35:36;7.05;;;3.08;;
37407;SDS011;24866;50.248;8.252;2023-04-25T11:38:09;7.90;;;2.85;;
37407;SDS011;24866;50.248;8.252;2023-04-25T11:40:40;9.82;;;3.00;;
37407;SDS011;24866;50.248;8.252;2023-04-25T11:43:10;10.48;;;2.90;;
37407;SDS011;24866;50.248;8.252;2023-04-25T11:45:41;8.80;;;2.67;;
37407;SDS011;24866;50.248;8.252;2023-04-25T11:48:16;12.60;;;3.55;;
37407;SDS011;24866;50.248;8.252;2023-04-25T11:50:46;8.35;;;2.72;;
37407;SDS011;24866;50.248;8.252;2023-04-25T11:53:17;7.15;;;2.33;;
37407;SDS011;24866;50.248;8.252;2023-04-25T11:55:47;11.07;;;2.65;;
37407;SDS011;24866;50.248;8.252;2023-04-25T11:58:17;7.72;;;2.45;;
37407;SDS011;24866;50.248;8.252;2023-04-25T12:00:49;7.70;;;3.00;;
37407;SDS011;24866;50.248;8.252;2023-04-25T12:03:19;8.15;;;2.70;;
37407;SDS011;24866;50.248;8.252;2023-04-25T12:05:52;10.00;;;3.45;;
37407;SDS011;24866;50.248;8.252;2023-04-25T12:08:22;5.88;;;2.13;;
37407;SDS011;24866;50.248;8.252;2023-04-25T12:10:54;7.22;;;2.78;;
37407;SDS011;24866;50.248;8.252;2023-04-25T12:13:25;8.77;;;2.85;;
37407;SDS011;24866;50.248;8.252;2023-04-25T12:15:58;8.68;;;3.10;;
37407;SDS011;24866;50.248;8.252;2023-04-25T12:18:30;7.70;;;2.80;;
37407;SDS011;24866;50.248;8.252;2023-04-25T12:21:07;7.85;;;3.13;;
37407;SDS011;24866;50.248;8.252;2023-04-25T12:23:39;10.55;;;3.08;;
37407;SDS011;24866;50.248;8.252;2023-04-25T12:26:09;7.40;;;3.13;;
37407;SDS011;24866;50.248;8.252;2023-04-25T12:28:39;8.68;;;2.55;;
37407;SDS011;24866;50.248;8.252;2023-04-25T12:31:17;10.95;;;3.20;;
37407;SDS011;24866;50.248;8.252;2023-04-25T12:33:47;9.18;;;2.88;;
37407;SDS011;24866;50.248;8.252;2023-04-25T12:36:18;9.65;;;3.53;;
37407;SDS011;24866;50.248;8.252;2023-04-25T12:38:48;19.67;;;4.43;;
37407;SDS011;24866;50.248;8.252;2023-04-25T12:41:18;11.57;;;4.15;;
37407;SDS011;24866;50.248;8.252;2023-04-25T12:43:48;9.40;;;3.28;;
37407;SDS011;24866;50.248;8.252;2023-04-25T12:46:20;7.32;;;2.92;;
37407;SDS011;24866;50.248;8.252;2023-04-25T12:48:51;12.00;;;3.33;;
37407;SDS011;24866;50.248;8.252;2023-04-25T12:51:23;8.00;;;3.22;;
37407;SDS011;24866;50.248;8.252;2023-04-25T12:53:56;10.13;;;3.10;;
37407;SDS011;24866;50.248;8.252;2023-04-25T12:56:26;8.40;;;2.83;;
37407;SDS011;24866;50.248;8.252;2023-04-25T12:58:56;8.10;;;2.53;;
37407;SDS011;24866;50.248;8.252;2023-04-25T13:01:28;8.15;;;2.95;;
37407;SDS011;24866;50.248;8.252;2023-04-25T13:03:58;7.15;;;2.38;;
37407;SDS011;24866;50.248;8.252;2023-04-25T13:06:29;7.80;;;2.60;;
37407;SDS011;24866;50.248;8.252;2023-04-25T13:08:59;7.82;;;2.97;;
37407;SDS011;24866;50.248;8.252;2023-04-25T13:11:29;9.63;;;3.10;;
37407;SDS011;24866;50.248;8.252;2023-04-25T13:14:02;7.15;;;2.90;;
37407;SDS011;24866;50.248;8.252;2023-04-25T13:16:33;11.68;;;3.35;;
37407;SDS011;24866;50.248;8.252;2023-04-25T13:19:03;7.40;;;2.83;;
37407;SDS011;24866;50.248;8.252;2023-04-25T13:21:35;6.97;;;2.10;;
37407;SDS011;24866;50.248;8.252;2023-04-25T13:24:05;9.85;;;2.03;;
37407;SDS011;24866;50.248;8.252;2023-04-25T13:26:36;10.32;;;3.03;;
37407;SDS011;24866;50.248;8.252;2023-04-25T13:29:06;6.47;;;2.17;;
37407;SDS011;24866;50.248;8.252;2023-04-25T13:31:38;9.60;;;1.88;;
37407;SDS011;24866;50.248;8.252;2023-04-25T13:34:08;7.95;;;2.83;;
37407;SDS011;24866;50.248;8.252;2023-04-25T13:36:40;6.37;;;2.73;;
37407;SDS011;24866;50.248;8.252;2023-04-25T13:39:11;7.15;;;1.90;;
37407;SDS011;24866;50.248;8.252;2023-04-25T13:41:42;6.55;;;2.25;;
37407;SDS011;24866;50.248;8.252;2023-04-25T13:44:14;9.27;;;2.70;;
37407;SDS011;24866;50.248;8.252;2023-04-25T13:46:47;6.80;;;2.40;;
37407;SDS011;24866;50.248;8.252;2023-04-25T13:49:18;5.78;;;2.20;;
37407;SDS011;24866;50.248;8.252;2023-04-25T13:51:48;9.30;;;2.25;;
37407;SDS011;24866;50.248;8.252;2023-04-25T13:54:18;5.50;;;2.03;;
37407;SDS011;24866;50.248;8.252;2023-04-25T13:56:48;8.45;;;2.60;;
37407;SDS011;24866;50.248;8.252;2023-04-25T13:59:20;9.35;;;1.85;;
37407;SDS011;24866;50.248;8.252;2023-04-25T14:01:51;5.47;;;2.03;;
37407;SDS011;24866;50.248;8.252;2023-04-25T14:04:22;9.00;;;2.17;;
37407;SDS011;24866;50.248;8.252;2023-04-25T14:06:52;6.78;;;1.92;;
37407;SDS011;24866;50.248;8.252;2023-04-25T14:09:23;5.55;;;2.83;;
37407;SDS011;24866;50.248;8.252;2023-04-25T14:11:55;8.03;;;2.80;;
37407;SDS011;24866;50.248;8.252;2023-04-25T14:14:25;8.30;;;2.33;;
37407;SDS011;24866;50.248;8.252;2023-04-25T14:16:57;7.50;;;2.20;;
37407;SDS011;24866;50.248;8.252;2023-04-25T14:19:27;6.13;;;2.22;;
37407;SDS011;24866;50.248;8.252;2023-04-25T14:21:57;6.43;;;2.38;;
37407;SDS011;24866;50.248;8.252;2023-04-25T14:24:28;8.30;;;2.13;;
37407;SDS011;24866;50.248;8.252;2023-04-25T14:26:58;6.93;;;2.33;;
37407;SDS011;24866;50.248;8.252;2023-04-25T14:29:29;8.68;;;2.70;;
37407;SDS011;24866;50.248;8.252;2023-04-25T14:32:00;8.50;;;2.10;;
37407;SDS011;24866;50.248;8.252;2023-04-25T14:34:31;9.15;;;2.53;;
37407;SDS011;24866;50.248;8.252;2023-04-25T14:37:01;8.65;;;2.50;;
37407;SDS011;24866;50.248;8.252;2023-04-25T14:39:32;7.22;;;3.28;;
37407;SDS011;24866;50.248;8.252;2023-04-25T14:42:04;7.75;;;2.38;;
37407;SDS011;24866;50.248;8.252;2023-04-25T14:44:34;6.25;;;2.17;;
37407;SDS011;24866;50.248;8.252;2023-04-25T14:47:06;8.68;;;2.50;;
37407;SDS011;24866;50.248;8.252;2023-04-25T14:49:36;6.03;;;2.47;;
37407;SDS011;24866;50.248;8.252;2023-04-25T14:52:06;6.43;;;2.50;;
37407;SDS011;24866;50.248;8.252;2023-04-25T14:54:36;7.97;;;2.08;;
37407;SDS011;24866;50.248;8.252;2023-04-25T14:57:07;12.25;;;2.45;;
37407;SDS011;24866;50.248;8.252;2023-04-25T14:59:38;9.43;;;1.85;;
37407;SDS011;24866;50.248;8.252;2023-04-25T15:02:09;4.45;;;1.83;;
37407;SDS011;24866;50.248;8.252;2023-04-25T15:04:40;4.10;;;1.73;;
37407;SDS011;24866;50.248;8.252;2023-04-25T15:07:09;7.88;;;2.00;;
37407;SDS011;24866;50.248;8.252;2023-04-25T15:09:40;6.05;;;1.83;;
37407;SDS011;24866;50.248;8.252;2023-04-25T15:12:10;4.60;;;1.70;;
37407;SDS011;24866;50.248;8.252;2023-04-25T15:14:42;6.47;;;2.37;;